Time;durP1;ratioP1;P1;durP2;ratioP2;P2;SDS_P1;SDS_P2;PMS_P1;PMS_P2;Temp;Humidity;BMP_temperature;BMP_pressure;BME280_temperature;BME280_humidity;BME280_pressure;Samples;Min_cycle;Max_cycle;Signal;HPM_P1;HPM_P2
2021/12/21 00:00:12;;;;;;;20.83;12.38;;;1.60;99.90;;;;;;5045919;28;20036;-56
2021/12/21 00:02:56;;;;;;;19.83;12.50;;;1.60;99.90;;;;;;5047286;28;20083;-57
2021/12/21 00:05:41;;;;;;;19.38;11.40;;;1.60;99.90;;;;;;5051781;28;20090;-58
2021/12/21 00:08:25;;;;;;;20.42;11.65;;;1.60;99.90;;;;;;5055392;28;20056;-59
2021/12/21 00:11:09;;;;;;;23.65;11.52;;;1.60;99.90;;;;;;5051948;28;20395;-56
2021/12/21 00:14:09;;;;;;;21.67;12.75;;;1.60;99.90;;;;;;5055577;28;20393;-56
2021/12/21 00:17:08;;;;;;;20.42;12.63;;;1.60;99.90;;;;;;5056469;28;20086;-60
2021/12/21 00:20:24;;;;;;;20.48;12.60;;;1.70;99.90;;;;;;5056122;28;20091;-57
2021/12/21 00:26:19;;;;;;;23.80;12.82;;;1.70;99.90;;;;;;5058104;28;20076;-59
2021/12/21 00:29:03;;;;;;;18.63;11.52;;;1.70;99.90;;;;;;5056805;28;20097;-60
2021/12/21 00:31:48;;;;;;;22.30;11.60;;;1.80;99.90;;;;;;5056444;28;20043;-60
2021/12/21 00:34:32;;;;;;;18.52;12.15;;;1.80;99.90;;;;;;5041822;28;20095;-56
2021/12/21 00:37:18;;;;;;;19.57;12.23;;;1.80;99.90;;;;;;5058219;28;20458;-59
2021/12/21 00:40:03;;;;;;;20.95;11.80;;;1.90;99.90;;;;;;5056735;28;20155;-55
2021/12/21 00:42:48;;;;;;;24.17;12.30;;;1.70;99.90;;;;;;5057133;28;20121;-58
2021/12/21 00:45:32;;;;;;;22.02;12.60;;;1.60;99.90;;;;;;5044151;28;20400;-61
2021/12/21 00:48:17;;;;;;;21.58;12.93;;;1.50;99.90;;;;;;5056731;28;20089;-54
2021/12/21 00:51:04;;;;;;;22.80;12.07;;;1.50;99.90;;;;;;5054255;28;20039;-56
2021/12/21 00:53:49;;;;;;;21.58;13.07;;;1.50;99.90;;;;;;5055387;28;20299;-53
2021/12/21 00:56:33;;;;;;;23.92;12.85;;;1.40;99.90;;;;;;5055870;28;20040;-54
2021/12/21 00:59:18;;;;;;;23.30;12.90;;;1.40;99.90;;;;;;5052185;28;20086;-53
2021/12/21 01:02:02;;;;;;;22.95;14.00;;;1.40;99.90;;;;;;5060119;28;20085;-52
2021/12/21 01:04:49;;;;;;;19.38;12.95;;;1.30;99.90;;;;;;5062077;28;20519;-55
2021/12/21 01:07:38;;;;;;;22.63;13.23;;;1.30;99.90;;;;;;5054586;28;20055;-57
2021/12/21 01:13:37;;;;;;;29.92;15.07;;;1.30;99.90;;;;;;5055588;28;20404;-55
2021/12/21 01:16:43;;;;;;;22.98;13.32;;;1.20;99.90;;;;;;5043514;28;20138;-53
2021/12/21 01:19:34;;;;;;;23.65;14.38;;;1.20;99.90;;;;;;5052700;28;20071;-57
2021/12/21 01:22:33;;;;;;;27.52;13.80;;;1.10;99.90;;;;;;5055711;28;20036;-53
2021/12/21 01:26:05;;;;;;;25.45;12.52;;;1.00;99.90;;;;;;5053830;28;20047;-57
2021/12/21 01:31:42;;;;;;;20.98;12.77;;;0.80;99.90;;;;;;5047695;28;20415;-55
2021/12/21 01:43:49;;;;;;;22.55;14.02;;;1.00;99.90;;;;;;5051105;28;20079;-53
2021/12/21 01:49:45;;;;;;;30.33;14.25;;;1.00;99.90;;;;;;5053183;28;20036;-54
2021/12/21 01:52:30;;;;;;;24.30;13.25;;;0.90;99.90;;;;;;5062325;28;20045;-53
2021/12/21 01:55:14;;;;;;;27.45;13.65;;;1.00;99.90;;;;;;5047170;28;20122;-51
2021/12/21 01:57:59;;;;;;;27.20;14.20;;;1.00;99.90;;;;;;5060303;28;20055;-51
2021/12/21 02:00:43;;;;;;;23.73;12.70;;;1.00;99.90;;;;;;5069998;28;20055;-52
2021/12/21 02:03:28;;;;;;;28.27;13.75;;;1.00;99.90;;;;;;5040367;28;20507;-49
2021/12/21 02:06:13;;;;;;;25.20;13.93;;;1.00;99.90;;;;;;5051398;28;20456;-55
2021/12/21 02:09:00;;;;;;;;;;;0.90;99.90;;;;;;5040370;28;20507;-50
2021/12/21 02:11:44;;;;;;;29.67;13.75;;;0.90;99.90;;;;;;5052556;28;19970;-53
2021/12/21 02:14:28;;;;;;;28.48;14.93;;;0.90;99.90;;;;;;5043473;28;20040;-54
2021/12/21 02:17:52;;;;;;;24.27;14.07;;;0.90;99.90;;;;;;5053107;28;20040;-57
2021/12/21 02:23:27;;;;;;;24.40;13.02;;;0.80;99.90;;;;;;5052156;28;20530;-51
2021/12/21 02:26:37;;;;;;;24.15;13.45;;;0.70;99.90;;;;;;5053126;28;20450;-54
2021/12/21 02:29:27;;;;;;;28.45;13.48;;;0.70;99.90;;;;;;5052810;28;20094;-57
2021/12/21 02:32:14;;;;;;;23.58;13.43;;;0.60;99.90;;;;;;5052493;28;20167;-50
2021/12/21 02:34:58;;;;;;;21.98;12.98;;;0.50;99.90;;;;;;5040287;28;20059;-51
2021/12/21 02:37:42;;;;;;;28.85;15.38;;;0.50;99.90;;;;;;5027310;28;20511;-54
2021/12/21 02:40:27;;;;;;;23.10;13.55;;;0.40;99.90;;;;;;5056298;28;20143;-53
2021/12/21 02:43:13;;;;;;;23.35;13.00;;;0.40;99.90;;;;;;5055656;28;20112;-56
2021/12/21 02:45:57;;;;;;;19.92;12.45;;;0.40;99.90;;;;;;5036537;28;20123;-57
2021/12/21 02:48:44;;;;;;;21.75;12.63;;;0.40;99.90;;;;;;5042212;28;20032;-56
2021/12/21 02:51:28;;;;;;;25.85;12.82;;;0.30;99.90;;;;;;5056838;28;20094;-54
2021/12/21 02:54:15;;;;;;;18.92;12.63;;;0.40;99.90;;;;;;5041266;28;20032;-55
2021/12/21 02:56:59;;;;;;;18.80;12.38;;;0.40;99.90;;;;;;5046579;28;20032;-49
2021/12/21 02:59:43;;;;;;;22.23;13.30;;;0.40;99.90;;;;;;5041528;28;20035;-51
2021/12/21 03:02:28;;;;;;;24.60;12.77;;;0.40;99.90;;;;;;5056737;28;20047;-49
2021/12/21 03:05:13;;;;;;;22.77;12.70;;;0.40;99.90;;;;;;5055849;28;20155;-51
2021/12/21 03:08:08;;;;;;;21.00;11.68;;;0.40;99.90;;;;;;5055768;28;20089;-54
2021/12/21 03:11:04;;;;;;;23.90;11.88;;;0.40;99.90;;;;;;5042281;28;20120;-51
2021/12/21 03:14:04;;;;;;;21.85;11.90;;;0.40;99.90;;;;;;5055055;28;20076;-51
2021/12/21 03:16:48;;;;;;;20.25;11.20;;;0.30;99.90;;;;;;5044878;28;20040;-50
2021/12/21 03:19:33;;;;;;;19.30;11.07;;;0.20;99.90;;;;;;5055514;28;20083;-53
2021/12/21 03:22:17;;;;;;;22.35;11.85;;;0.20;99.90;;;;;;5054684;28;20044;-52
2021/12/21 03:25:04;;;;;;;;;;;0.20;99.90;;;;;;5055550;28;20952;-49
2021/12/21 03:27:48;;;;;;;19.30;11.80;;;0.20;99.90;;;;;;5055945;28;19962;-50
2021/12/21 03:30:33;;;;;;;21.27;11.10;;;0.20;99.90;;;;;;5040218;28;20586;-54
2021/12/21 03:33:18;;;;;;;22.00;12.40;;;0.10;99.90;;;;;;5055075;28;20063;-54
2021/12/21 03:36:04;;;;;;;19.42;12.38;;;0.10;99.90;;;;;;5040318;28;20047;-50
2021/12/21 03:39:06;;;;;;;23.35;11.73;;;0.20;99.90;;;;;;5055732;28;20048;-50
2021/12/21 03:41:56;;;;;;;19.60;11.65;;;0.30;99.90;;;;;;5055687;28;20096;-51
2021/12/21 03:44:40;;;;;;;19.88;11.95;;;0.30;99.90;;;;;;5058249;28;20091;-53
2021/12/21 03:47:25;;;;;;;18.10;11.32;;;0.20;99.90;;;;;;5054886;28;20120;-53
2021/12/21 03:50:17;;;;;;;18.65;11.68;;;0.20;99.90;;;;;;5055127;28;20099;-55
2021/12/21 03:53:01;;;;;;;17.77;12.35;;;0.20;99.90;;;;;;5054649;28;20076;-52
2021/12/21 03:55:45;;;;;;;21.17;12.27;;;0.30;99.90;;;;;;5054534;28;20036;-53
2021/12/21 03:58:29;;;;;;;18.80;12.65;;;0.20;99.90;;;;;;5035080;28;20048;-52
2021/12/21 04:01:14;;;;;;;19.80;12.07;;;0.30;99.90;;;;;;5054831;28;20063;-56
2021/12/21 04:03:58;;;;;;;20.10;12.07;;;0.30;99.90;;;;;;5054245;28;20036;-53
2021/12/21 04:06:42;;;;;;;23.83;12.73;;;0.20;99.90;;;;;;5054590;28;20424;-56
2021/12/21 04:09:26;;;;;;;20.55;12.27;;;0.20;99.90;;;;;;5035882;28;20467;-54
2021/12/21 04:12:11;;;;;;;18.70;11.00;;;0.20;99.90;;;;;;5039503;28;20030;-53
2021/12/21 04:14:57;;;;;;;17.35;11.70;;;0.20;99.90;;;;;;5039535;28;20040;-53
2021/12/21 04:17:41;;;;;;;22.73;11.73;;;0.20;99.90;;;;;;5054798;28;20029;-50
2021/12/21 04:20:25;;;;;;;19.13;11.68;;;0.10;99.90;;;;;;5053702;28;20143;-51
2021/12/21 04:23:09;;;;;;;19.88;11.77;;;0.10;99.90;;;;;;5053961;28;20415;-49
2021/12/21 04:25:54;;;;;;;21.47;13.40;;;0.10;99.90;;;;;;5042473;28;20036;-49
2021/12/21 04:28:39;;;;;;;20.23;13.02;;;0.00;99.90;;;;;;5053912;28;20040;-54
2021/12/21 04:31:24;;;;;;;17.92;11.68;;;0.10;99.90;;;;;;5054365;28;20044;-52
2021/12/21 04:34:07;;;;;;;16.77;11.85;;;0.00;99.90;;;;;;5053933;28;20056;-52
2021/12/21 04:36:52;;;;;;;21.17;13.45;;;0.00;99.90;;;;;;5054321;28;20063;-48
2021/12/21 04:39:46;;;;;;;17.65;12.55;;;0.00;99.90;;;;;;5054660;28;20039;-53
2021/12/21 04:42:30;;;;;;;17.85;12.10;;;0.00;99.90;;;;;;5053896;28;20110;-54
2021/12/21 04:45:14;;;;;;;17.17;12.00;;;0.00;99.90;;;;;;5054826;28;20444;-49
2021/12/21 04:47:59;;;;;;;19.75;12.35;;;0.00;99.90;;;;;;5054216;28;20056;-56
2021/12/21 04:50:44;;;;;;;20.97;12.40;;;0.10;99.90;;;;;;5041358;28;20068;-54
2021/12/21 04:53:29;;;;;;;20.30;12.38;;;0.00;99.90;;;;;;5053943;28;20036;-55
2021/12/21 04:56:14;;;;;;;22.05;13.02;;;0.00;99.90;;;;;;5039195;28;20036;-49
2021/12/21 04:58:58;;;;;;;19.15;13.10;;;-0.10;99.90;;;;;;5054177;28;20116;-53
2021/12/21 05:01:43;;;;;;;19.50;12.75;;;0.00;99.90;;;;;;5048535;28;20515;-52
2021/12/21 05:04:27;;;;;;;;;;;0.00;99.90;;;;;;5055179;28;20412;-53
2021/12/21 05:07:15;;;;;;;20.65;11.55;;;0.10;99.90;;;;;;5054193;28;19951;-50
2021/12/21 05:10:02;;;;;;;18.92;12.63;;;0.10;99.90;;;;;;5040087;28;20051;-52
2021/12/21 05:12:47;;;;;;;21.75;13.38;;;0.10;99.90;;;;;;5053183;28;20281;-54
2021/12/21 05:15:31;;;;;;;18.27;12.32;;;0.10;99.90;;;;;;5053273;28;20052;-51
2021/12/21 05:18:17;;;;;;;17.63;11.77;;;0.10;99.90;;;;;;5053916;28;20147;-52
2021/12/21 05:21:01;;;;;;;19.35;13.93;;;0.10;99.90;;;;;;5053312;28;20031;-48
2021/12/21 05:23:45;;;;;;;19.30;11.20;;;0.10;99.90;;;;;;5050525;28;20032;-51
2021/12/21 05:26:29;;;;;;;21.85;12.55;;;0.00;99.90;;;;;;5053926;28;20055;-53
2021/12/21 05:29:13;;;;;;;18.60;12.82;;;-0.10;99.90;;;;;;5039119;28;20160;-54
2021/12/21 05:31:59;;;;;;;21.17;13.10;;;-0.10;99.90;;;;;;5038304;28;20563;-52
2021/12/21 05:34:43;;;;;;;19.65;12.68;;;-0.20;99.90;;;;;;5053576;28;20056;-55
2021/12/21 05:37:27;;;;;;;19.77;12.13;;;-0.20;99.90;;;;;;5053632;28;20039;-53
2021/12/21 05:40:18;;;;;;;21.23;12.87;;;-0.10;99.90;;;;;;5053881;28;20056;-50
2021/12/21 05:43:04;;;;;;;20.35;12.60;;;-0.10;99.90;;;;;;5054190;28;20078;-57
2021/12/21 05:45:48;;;;;;;17.15;11.52;;;-0.20;99.90;;;;;;5053045;28;20570;-50
2021/12/21 05:48:32;;;;;;;19.58;12.40;;;-0.40;99.90;;;;;;5053692;28;20056;-51
2021/12/21 05:51:16;;;;;;;19.95;12.85;;;-0.50;99.90;;;;;;5027948;28;20040;-52
2021/12/21 05:54:00;;;;;;;21.30;13.05;;;-0.40;99.90;;;;;;5052583;28;20420;-54
2021/12/21 05:56:44;;;;;;;22.25;12.82;;;-0.30;99.90;;;;;;5040786;28;20521;-51
2021/12/21 05:59:29;;;;;;;17.73;12.27;;;-0.30;99.90;;;;;;5052716;28;20055;-51
2021/12/21 06:02:14;;;;;;;21.23;12.50;;;-0.30;99.90;;;;;;5044154;28;20408;-54
2021/12/21 06:04:58;;;;;;;;;;;-0.30;99.90;;;;;;5050329;28;20062;-52
2021/12/21 06:07:42;;;;;;;19.88;11.55;;;-0.20;99.90;;;;;;5053354;28;19979;-52
2021/12/21 06:10:37;;;;;;;25.20;12.25;;;-0.30;99.90;;;;;;5054296;28;20519;-50
2021/12/21 06:13:45;;;;;;;20.15;12.18;;;-0.30;99.90;;;;;;5057104;28;20408;-53
2021/12/21 06:22:45;;;;;;;18.75;13.30;;;-0.40;99.90;;;;;;5056749;28;20507;-57
2021/12/21 06:25:42;;;;;;;19.40;13.07;;;-0.30;99.90;;;;;;5056033;28;20044;-58
2021/12/21 06:28:26;;;;;;;21.50;11.88;;;-0.30;99.90;;;;;;5051509;28;20040;-54
2021/12/21 06:31:11;;;;;;;20.88;13.25;;;-0.30;99.90;;;;;;5051663;28;20574;-56
2021/12/21 06:33:55;;;;;;;22.50;14.30;;;-0.30;99.90;;;;;;5056354;28;20098;-54
2021/12/21 06:36:39;;;;;;;20.73;13.88;;;-0.30;99.90;;;;;;5058186;28;20063;-47
2021/12/21 06:39:24;;;;;;;23.95;12.63;;;-0.20;99.90;;;;;;5056448;28;20122;-56
2021/12/21 06:42:09;;;;;;;24.27;12.93;;;-0.30;99.90;;;;;;5041391;28;20553;-47
2021/12/21 06:44:57;;;;;;;20.08;12.30;;;-0.20;99.90;;;;;;5055937;28;20048;-52
2021/12/21 06:53:51;;;;;;;24.25;14.65;;;0.10;99.90;;;;;;5056201;28;20044;-50
2021/12/21 06:56:35;;;;;;;20.67;12.65;;;0.00;99.90;;;;;;5056402;28;20051;-54
2021/12/21 06:59:19;;;;;;;22.60;12.77;;;-0.10;99.90;;;;;;5037241;28;20088;-56
2021/12/21 07:02:04;;;;;;;20.45;12.88;;;0.00;99.90;;;;;;5054163;28;20404;-54
2021/12/21 07:04:48;;;;;;;28.13;14.73;;;0.10;99.90;;;;;;5054253;28;20040;-56
2021/12/21 07:07:32;;;;;;;22.98;13.50;;;0.10;99.90;;;;;;5054917;28;20043;-54
2021/12/21 07:10:23;;;;;;;25.77;15.52;;;0.10;99.90;;;;;;5035107;28;20037;-47
2021/12/21 07:19:15;;;;;;;19.48;12.77;;;0.10;99.90;;;;;;5055972;28;20407;-55
2021/12/21 07:21:59;;;;;;;21.40;13.13;;;0.20;99.90;;;;;;5045106;28;20036;-53
2021/12/21 07:24:44;;;;;;;20.00;13.10;;;0.20;99.90;;;;;;5038691;28;20067;-53
2021/12/21 07:27:28;;;;;;;23.17;13.45;;;0.10;99.90;;;;;;5037303;28;20428;-54
2021/12/21 07:30:12;;;;;;;22.33;13.07;;;0.00;99.90;;;;;;5047941;28;20087;-60
2021/12/21 07:32:56;;;;;;;20.33;13.23;;;0.00;99.90;;;;;;5055135;28;20075;-59
2021/12/21 07:35:41;;;;;;;25.73;16.20;;;0.00;99.90;;;;;;5045756;28;20052;-53
2021/12/21 07:38:26;;;;;;;25.50;16.83;;;0.10;99.90;;;;;;5040573;28;20396;-53
2021/12/21 07:41:11;;;;;;;21.73;13.55;;;0.20;99.90;;;;;;5052199;28;20063;-56
2021/12/21 07:43:55;;;;;;;24.80;13.23;;;0.20;99.90;;;;;;5050732;28;20048;-53
2021/12/21 07:46:41;;;;;;;20.38;12.85;;;0.30;99.90;;;;;;5047135;28;20040;-52
2021/12/21 07:49:25;;;;;;;20.45;12.23;;;0.40;99.90;;;;;;5047852;28;20503;-54
2021/12/21 07:52:10;;;;;;;20.70;13.15;;;0.50;99.90;;;;;;5053397;28;20032;-54
2021/12/21 07:54:57;;;;;;;25.55;13.25;;;0.40;99.90;;;;;;5052161;28;20064;-54
2021/12/21 07:57:41;;;;;;;21.58;12.98;;;0.50;99.90;;;;;;5053555;28;20166;-55
2021/12/21 08:00:25;;;;;;;25.33;13.15;;;0.50;99.90;;;;;;5046739;28;20040;-52
2021/12/21 08:03:14;;;;;;;33.72;14.25;;;0.60;99.90;;;;;;5039734;28;20082;-51
2021/12/21 08:06:00;;;;;;;21.67;14.07;;;0.60;99.90;;;;;;5051931;28;20036;-56
2021/12/21 08:08:46;;;;;;;20.35;13.32;;;0.50;99.90;;;;;;5036727;28;20063;-50
2021/12/21 08:14:19;;;;;;;22.17;13.75;;;0.20;99.90;;;;;;5049092;28;20392;-51
2021/12/21 08:17:04;;;;;;;23.15;13.45;;;0.30;99.90;;;;;;5051741;28;20508;-55
2021/12/21 08:19:49;;;;;;;22.80;13.48;;;0.30;99.90;;;;;;5036458;28;20031;-52
2021/12/21 08:22:33;;;;;;;20.65;13.60;;;0.30;99.90;;;;;;5035145;28;20071;-54
2021/12/21 08:25:17;;;;;;;23.60;14.85;;;0.30;99.90;;;;;;5022349;28;20071;-50
2021/12/21 08:28:02;;;;;;;25.95;14.30;;;0.00;99.90;;;;;;5051628;28;20052;-51
2021/12/21 08:30:47;;;;;;;25.50;14.93;;;0.00;99.90;;;;;;5037267;28;20044;-54
2021/12/21 08:33:31;;;;;;;23.65;14.40;;;0.10;99.90;;;;;;5035835;28;20036;-51
2021/12/21 08:36:15;;;;;;;24.98;15.13;;;0.30;99.90;;;;;;5053828;28;20036;-49
2021/12/21 08:38:59;;;;;;;24.23;15.32;;;0.30;99.90;;;;;;5053840;28;20227;-49
2021/12/21 08:41:45;;;;;;;27.15;16.42;;;0.50;99.90;;;;;;5054128;28;20071;-51
2021/12/21 08:44:30;;;;;;;28.75;16.33;;;0.40;99.90;;;;;;5053486;28;20043;-50
2021/12/21 08:47:16;;;;;;;34.30;20.45;;;0.40;99.90;;;;;;5053861;28;20507;-52
2021/12/21 08:50:00;;;;;;;22.80;16.05;;;0.60;99.90;;;;;;5053833;28;20067;-52
2021/12/21 08:52:44;;;;;;;27.85;15.95;;;0.70;99.90;;;;;;5053323;28;20048;-54
2021/12/21 08:55:29;;;;;;;26.35;16.25;;;0.60;99.90;;;;;;5053508;28;20424;-54
2021/12/21 08:58:14;;;;;;;;;;;0.70;99.90;;;;;;5054088;28;20043;-50
2021/12/21 09:00:58;;;;;;;33.08;16.17;;;0.70;99.90;;;;;;5042410;28;20021;-51
2021/12/21 09:03:44;;;;;;;28.38;15.48;;;0.60;99.90;;;;;;5053934;28;20676;-51
2021/12/21 09:06:28;;;;;;;28.98;17.23;;;0.70;99.90;;;;;;5040947;28;20040;-52
2021/12/21 09:09:12;;;;;;;27.85;17.83;;;0.70;99.90;;;;;;5054934;28;20071;-50
2021/12/21 09:11:57;;;;;;;28.30;16.13;;;0.80;99.90;;;;;;5062676;28;20072;-53
2021/12/21 09:14:41;;;;;;;24.05;15.27;;;0.90;99.90;;;;;;5057695;28;20206;-57
2021/12/21 09:17:25;;;;;;;31.50;15.98;;;0.80;99.90;;;;;;5042626;28;20112;-55
2021/12/21 09:20:13;;;;;;;27.20;15.73;;;0.70;99.90;;;;;;5055301;28;20044;-56
2021/12/21 09:22:58;;;;;;;24.20;14.95;;;0.60;99.90;;;;;;5047573;28;20044;-54
2021/12/21 09:25:42;;;;;;;25.17;15.60;;;0.50;99.90;;;;;;5050684;28;20117;-53
2021/12/21 09:28:26;;;;;;;26.38;15.98;;;0.60;99.90;;;;;;5051461;28;20578;-51
2021/12/21 09:31:11;;;;;;;25.30;15.48;;;0.60;99.90;;;;;;5051933;28;20047;-53
2021/12/21 09:33:55;;;;;;;25.30;16.08;;;0.60;99.90;;;;;;5052498;28;20546;-50
2021/12/21 09:36:39;;;;;;;28.75;14.95;;;0.50;99.90;;;;;;5053001;28;20171;-51
2021/12/21 09:39:23;;;;;;;26.42;16.00;;;0.50;99.90;;;;;;5051288;28;20020;-52
2021/12/21 09:42:08;;;;;;;29.00;16.60;;;0.50;99.90;;;;;;5051679;28;20048;-54
2021/12/21 09:44:54;;;;;;;29.92;17.25;;;0.80;99.90;;;;;;5037268;28;20117;-54
2021/12/21 09:47:38;;;;;;;;;;;1.10;99.90;;;;;;5050174;28;20446;-51
2021/12/21 09:50:25;;;;;;;24.15;14.23;;;1.30;99.90;;;;;;5050849;28;20422;-56
2021/12/21 09:53:09;;;;;;;25.13;15.10;;;1.30;99.90;;;;;;5047918;28;20152;-53
2021/12/21 09:55:54;;;;;;;30.13;15.83;;;1.10;99.90;;;;;;5052016;28;20052;-51
2021/12/21 09:58:37;;;;;;;26.60;15.27;;;1.10;99.90;;;;;;5049202;28;20108;-52
2021/12/21 10:01:22;;;;;;;27.63;15.27;;;1.00;99.90;;;;;;5047365;28;20039;-53
2021/12/21 10:04:06;;;;;;;26.70;16.20;;;1.00;99.90;;;;;;5035922;28;20152;-49
2021/12/21 10:06:54;;;;;;;29.27;17.27;;;1.00;99.90;;;;;;5052392;28;20105;-52
2021/12/21 10:09:43;;;;;;;28.35;16.77;;;1.00;99.90;;;;;;5052046;28;20037;-50
2021/12/21 10:12:34;;;;;;;25.65;17.27;;;1.00;99.90;;;;;;5048967;28;20027;-48
2021/12/21 10:15:20;;;;;;;33.10;18.05;;;1.10;99.90;;;;;;5036635;28;20028;-52
2021/12/21 10:18:05;;;;;;;30.23;17.95;;;1.10;99.90;;;;;;5048344;28;20032;-49
2021/12/21 10:20:50;;;;;;;31.92;18.48;;;1.10;99.90;;;;;;5041908;28;20388;-59
2021/12/21 10:23:40;;;;;;;38.10;19.38;;;1.20;99.90;;;;;;5027624;28;20051;-54
2021/12/21 10:26:29;;;;;;;37.25;19.50;;;1.30;99.90;;;;;;5053338;28;20032;-49
2021/12/21 10:29:15;;;;;;;37.70;20.30;;;1.20;99.90;;;;;;5046027;28;20096;-57
2021/12/21 10:32:00;;;;;;;36.05;21.88;;;1.30;99.90;;;;;;5034074;28;20064;-51
2021/12/21 10:35:11;;;;;;;40.10;22.55;;;1.30;99.90;;;;;;5032381;28;20040;-51
2021/12/21 10:37:55;;;;;;;39.78;23.10;;;1.30;99.90;;;;;;5049811;28;20043;-52
2021/12/21 10:40:40;;;;;;;43.40;24.37;;;1.30;99.90;;;;;;5033477;28;20036;-53
2021/12/21 10:43:28;;;;;;;42.65;25.80;;;1.20;99.90;;;;;;5048154;28;20262;-57
2021/12/21 10:46:12;;;;;;;48.47;27.55;;;1.30;99.90;;;;;;5052192;28;20519;-53
2021/12/21 10:49:23;;;;;;;45.05;24.27;;;1.50;99.90;;;;;;5051300;28;20102;-53
2021/12/21 10:52:12;;;;;;;43.05;23.83;;;1.60;99.90;;;;;;5051639;28;20163;-49
2021/12/21 10:54:56;;;;;;;41.88;23.23;;;1.70;99.90;;;;;;5031185;28;20060;-54
2021/12/21 10:57:40;;;;;;;42.28;23.77;;;1.80;99.90;;;;;;5038597;28;20546;-54
2021/12/21 11:00:25;;;;;;;39.85;23.52;;;1.80;99.90;;;;;;5022855;28;20040;-50
2021/12/21 11:03:09;;;;;;;42.03;25.35;;;1.90;99.90;;;;;;5042241;28;21744;-53
2021/12/21 11:05:53;;;;;;;42.13;24.42;;;1.70;99.90;;;;;;5038950;28;20075;-52
2021/12/21 11:08:39;;;;;;;42.03;25.23;;;1.60;99.90;;;;;;5053618;28;20411;-51
2021/12/21 11:11:37;;;;;;;43.42;25.40;;;1.70;99.90;;;;;;5053992;28;20103;-55
2021/12/21 11:14:21;;;;;;;46.40;23.55;;;1.70;99.90;;;;;;5034689;28;20041;-51
2021/12/21 11:17:09;;;;;;;48.35;25.52;;;1.70;99.90;;;;;;5038018;28;20136;-53
2021/12/21 11:19:53;;;;;;;41.35;24.80;;;1.70;99.90;;;;;;5054969;28;20545;-53
2021/12/21 11:22:40;;;;;;;51.20;26.73;;;1.60;99.90;;;;;;5054845;28;20048;-56
2021/12/21 11:25:25;;;;;;;45.90;26.33;;;1.60;99.90;;;;;;5040558;28;20040;-52
2021/12/21 11:28:15;;;;;;;40.50;24.73;;;1.50;99.90;;;;;;5056605;28;20098;-53
2021/12/21 11:31:00;;;;;;;43.42;25.38;;;1.50;99.90;;;;;;5041859;28;20286;-54
2021/12/21 11:33:46;;;;;;;;;;;1.30;99.90;;;;;;5048044;28;20040;-51
2021/12/21 11:39:34;;;;;;;48.15;26.38;;;1.40;99.90;;;;;;5054966;28;20548;-54
2021/12/21 11:42:33;;;;;;;53.03;27.08;;;1.50;99.90;;;;;;5044606;28;20044;-54
2021/12/21 11:45:27;;;;;;;46.45;26.02;;;1.60;99.90;;;;;;5055251;28;20073;-53
2021/12/21 11:48:11;;;;;;;45.90;25.90;;;1.60;99.90;;;;;;5038197;28;20051;-53
2021/12/21 11:51:03;;;;;;;48.40;26.27;;;1.80;99.90;;;;;;5055007;28;20044;-54
2021/12/21 11:53:48;;;;;;;40.42;25.17;;;1.90;99.90;;;;;;5047894;28;20447;-49
2021/12/21 11:56:32;;;;;;;49.47;26.13;;;2.00;99.90;;;;;;5043682;28;20539;-48
2021/12/21 11:59:22;;;;;;;43.80;24.97;;;2.10;99.90;;;;;;5036495;28;20113;-56
2021/12/21 12:02:07;;;;;;;42.05;25.10;;;2.20;99.90;;;;;;5052400;28;20060;-51
2021/12/21 12:04:56;;;;;;;43.53;24.52;;;2.20;99.90;;;;;;5048824;28;20091;-52
2021/12/21 12:07:41;;;;;;;41.67;24.98;;;2.20;99.90;;;;;;5046313;28;20028;-55
2021/12/21 12:10:25;;;;;;;42.50;24.90;;;2.10;99.90;;;;;;5021868;28;20071;-50
2021/12/21 12:13:39;;;;;;;42.25;27.20;;;2.10;99.90;;;;;;5043268;28;20535;-53
2021/12/21 12:16:24;;;;;;;46.75;24.95;;;2.00;99.90;;;;;;5043268;28;20028;-50
2021/12/21 12:19:14;;;;;;;36.47;22.20;;;2.10;99.90;;;;;;5042426;28;20040;-49
2021/12/21 12:22:04;;;;;;;37.60;23.58;;;2.20;99.90;;;;;;5049255;28;20024;-57
2021/12/21 12:24:57;;;;;;;42.97;24.33;;;2.20;99.90;;;;;;5037225;28;20074;-53
2021/12/21 12:27:45;;;;;;;44.47;26.00;;;2.00;99.90;;;;;;5045065;28;20523;-54
2021/12/21 12:30:29;;;;;;;39.65;24.77;;;1.90;99.90;;;;;;5049077;28;20102;-56
2021/12/21 12:33:13;;;;;;;41.15;24.60;;;2.00;99.90;;;;;;5038873;28;20193;-55
2021/12/21 12:36:03;;;;;;;42.67;24.60;;;2.10;99.90;;;;;;5034384;28;20044;-53
2021/12/21 12:38:48;;;;;;;38.70;23.45;;;2.10;99.90;;;;;;5034251;28;20028;-56
2021/12/21 12:41:44;;;;;;;41.40;24.42;;;2.10;99.90;;;;;;5034773;28;20040;-52
2021/12/21 12:44:28;;;;;;;46.10;26.13;;;2.10;99.90;;;;;;5039387;28;20040;-50
2021/12/21 12:47:15;;;;;;;50.13;24.25;;;2.20;99.90;;;;;;5054521;28;20041;-52
2021/12/21 12:49:59;;;;;;;38.70;22.63;;;2.20;99.90;;;;;;5023701;28;20076;-52
2021/12/21 12:53:06;;;;;;;43.70;23.70;;;2.20;99.90;;;;;;5050906;28;20452;-53
2021/12/21 12:55:50;;;;;;;37.78;24.10;;;2.10;99.90;;;;;;5042660;28;20032;-58
2021/12/21 12:58:35;;;;;;;45.78;24.55;;;2.20;99.90;;;;;;5036306;28;20067;-52
2021/12/21 13:01:24;;;;;;;38.28;23.42;;;2.20;99.90;;;;;;5039238;28;20039;-53
2021/12/21 13:04:15;;;;;;;34.08;22.63;;;2.20;99.90;;;;;;5053905;28;20075;-56
2021/12/21 13:07:00;;;;;;;39.45;22.52;;;2.20;99.90;;;;;;5039006;28;20672;-48
2021/12/21 13:09:44;;;;;;;34.67;22.17;;;2.30;99.90;;;;;;5038340;28;20044;-50
2021/12/21 13:12:28;;;;;;;40.30;24.45;;;2.30;99.90;;;;;;5038659;28;20151;-57
2021/12/21 13:15:12;;;;;;;40.17;22.75;;;2.20;99.90;;;;;;5053859;28;20040;-53
2021/12/21 13:18:02;;;;;;;36.53;22.35;;;2.30;99.90;;;;;;5054728;28;20159;-56
2021/12/21 13:20:49;;;;;;;39.72;23.02;;;2.30;99.90;;;;;;5038986;28;20044;-55
2021/12/21 13:23:34;;;;;;;37.35;22.48;;;2.30;99.90;;;;;;5053791;28;20067;-54
2021/12/21 13:26:23;;;;;;;37.20;23.95;;;2.40;99.90;;;;;;5033993;28;20039;-53
2021/12/21 13:29:18;;;;;;;35.85;21.42;;;2.40;99.90;;;;;;5034630;28;20051;-56
2021/12/21 13:32:11;;;;;;;38.28;23.27;;;2.50;99.90;;;;;;5034521;28;20511;-54
2021/12/21 13:34:58;;;;;;;34.20;21.60;;;2.50;99.90;;;;;;5018992;28;20122;-54
2021/12/21 13:37:42;;;;;;;31.67;20.48;;;2.50;99.90;;;;;;5037429;28;20088;-54
2021/12/21 13:40:30;;;;;;;35.10;21.40;;;2.50;99.90;;;;;;5027315;28;20032;-52
2021/12/21 13:43:14;;;;;;;33.95;21.70;;;2.50;99.90;;;;;;5039530;28;20036;-52
2021/12/21 13:46:01;;;;;;;40.80;23.35;;;2.50;99.90;;;;;;5039185;28;20052;-51
2021/12/21 13:48:57;;;;;;;47.58;22.95;;;2.60;99.90;;;;;;5038959;28;20064;-52
2021/12/21 13:52:01;;;;;;;38.80;22.52;;;2.60;99.90;;;;;;5053903;28;20035;-52
2021/12/21 13:54:45;;;;;;;30.27;19.50;;;2.70;99.90;;;;;;5039093;28;20031;-52
2021/12/21 13:57:32;;;;;;;34.23;21.57;;;2.70;99.90;;;;;;5054244;28;20033;-51
2021/12/21 14:00:17;;;;;;;33.65;21.38;;;2.70;99.90;;;;;;5037682;28;20087;-56
2021/12/21 14:03:14;;;;;;;37.40;20.92;;;2.70;99.90;;;;;;5052336;28;20040;-54
2021/12/21 14:06:13;;;;;;;31.00;19.73;;;2.80;99.90;;;;;;5052398;28;20094;-52
2021/12/21 14:08:59;;;;;;;33.88;19.92;;;2.80;99.90;;;;;;5047162;28;20024;-50
2021/12/21 14:11:44;;;;;;;35.90;21.60;;;2.60;99.90;;;;;;5040895;28;20033;-51
2021/12/21 14:14:35;;;;;;;31.10;20.60;;;2.60;99.90;;;;;;5035874;28;20112;-54
2021/12/21 14:17:19;;;;;;;31.35;20.10;;;2.60;99.90;;;;;;5050288;28;20056;-54
2021/12/21 14:20:07;;;;;;;34.17;19.25;;;2.50;99.90;;;;;;5036158;28;20048;-52
2021/12/21 14:22:51;;;;;;;32.95;19.95;;;2.60;99.90;;;;;;5036128;28;20036;-56
2021/12/21 14:25:35;;;;;;;32.22;20.73;;;2.50;99.90;;;;;;5051654;28;20090;-53
2021/12/21 14:28:19;;;;;;;34.07;20.77;;;2.40;99.90;;;;;;5051431;28;20063;-55
2021/12/21 14:31:03;;;;;;;33.45;20.45;;;2.30;99.90;;;;;;5036980;28;20444;-53
2021/12/21 14:33:50;;;;;;;32.97;20.65;;;2.30;99.90;;;;;;5040299;28;20574;-53
2021/12/21 14:36:38;;;;;;;32.63;21.13;;;2.40;99.90;;;;;;5055210;28;20059;-57
2021/12/21 14:39:26;;;;;;;36.50;20.70;;;2.40;99.90;;;;;;5040755;28;20162;-50
2021/12/21 14:42:16;;;;;;;29.20;19.48;;;2.40;99.90;;;;;;5055423;28;20388;-48
2021/12/21 14:45:03;;;;;;;33.72;20.20;;;2.40;99.90;;;;;;5055458;28;20068;-53
2021/12/21 14:47:47;;;;;;;31.60;18.83;;;2.40;99.90;;;;;;5055495;28;20086;-49
2021/12/21 14:50:38;;;;;;;32.80;18.75;;;2.40;99.90;;;;;;5055242;28;20039;-48
2021/12/21 14:53:29;;;;;;;28.35;19.58;;;2.40;99.90;;;;;;5056175;28;20400;-51
2021/12/21 14:56:28;;;;;;;29.45;20.33;;;2.20;99.90;;;;;;5028507;28;20122;-50
2021/12/21 14:59:13;;;;;;;30.73;19.38;;;2.10;99.90;;;;;;5057601;28;20112;-53
2021/12/21 15:02:03;;;;;;;31.65;19.05;;;2.10;99.90;;;;;;5041883;28;20110;-50
2021/12/21 15:04:53;;;;;;;31.08;19.40;;;2.10;99.90;;;;;;5056316;28;20518;-49
2021/12/21 15:07:40;;;;;;;30.80;19.52;;;2.10;99.90;;;;;;5056410;28;20107;-52